Time;durP1;ratioP1;P1;durP2;ratioP2;P2;SDS_P1;SDS_P2;PMS_P1;PMS_P2;Temp;Humidity;BMP_temperature;BMP_pressure;BME280_temperature;BME280_humidity;BME280_pressure;Samples;Min_cycle;Max_cycle;Signal;HPM_P1;HPM_P2
2021/01/26 00:00:13;;;;;;;;;;;-0.10;91.40;;;;;;5074284;28;20019;-69
2021/01/26 00:02:39;;;;;;;;;;;-0.10;91.50;;;;;;5070799;28;19990;-69
2021/01/26 00:05:07;;;;;;;;;;;-0.20;91.50;;;;;;5073929;28;20029;-69
2021/01/26 00:07:34;;;;;;;;;;;-0.20;91.70;;;;;;5069997;28;20055;-69
2021/01/26 00:10:01;;;;;;;;;;;-0.20;91.70;;;;;;5074188;28;20367;-69
2021/01/26 00:12:27;;;;;;;;;;;-0.20;91.80;;;;;;5070996;28;19925;-69
2021/01/26 00:14:53;;;;;;;;;;;-0.20;91.90;;;;;;5073750;28;19924;-69
2021/01/26 00:17:20;;;;;;;;;;;-0.20;91.90;;;;;;5069619;28;20026;-69
2021/01/26 00:19:46;;;;;;;;;;;-0.20;91.90;;;;;;5073570;28;19924;-69
2021/01/26 00:22:12;;;;;;;;;;;-0.10;91.60;;;;;;5070325;28;20014;-69
2021/01/26 00:24:39;;;;;;;;;;;-0.10;91.50;;;;;;5073668;28;20399;-69
2021/01/26 00:27:06;;;;;;;;;;;-0.10;91.50;;;;;;5070338;28;19994;-69
2021/01/26 00:29:32;;;;;;;;;;;-0.10;91.50;;;;;;5072475;28;19924;-69
2021/01/26 00:31:58;;;;;;;;;;;-0.10;91.40;;;;;;5073451;28;19971;-69
2021/01/26 00:34:27;;;;;;;;;;;-0.10;91.30;;;;;;5070093;28;20005;-69
2021/01/26 00:36:53;;;;;;;;;;;0.00;91.40;;;;;;5073518;28;19932;-69
2021/01/26 00:39:20;;;;;;;;;;;-0.10;91.40;;;;;;5070407;28;19924;-69
2021/01/26 00:41:46;;;;;;;;;;;-0.10;91.50;;;;;;5073126;28;20404;-68
2021/01/26 00:44:12;;;;;;;;;;;0.10;91.20;;;;;;5070174;28;19952;-69
2021/01/26 00:46:38;;;;;;;;;;;0.00;91.40;;;;;;5073025;28;19924;-69
2021/01/26 00:49:05;;;;;;;;;;;0.00;91.50;;;;;;5062095;28;19933;-69
2021/01/26 00:51:31;;;;;;;;;;;0.00;91.60;;;;;;5073422;28;19928;-69
2021/01/26 00:53:57;;;;;;;;;;;0.00;91.70;;;;;;5070034;28;19959;-69
2021/01/26 00:56:23;;;;;;;;;;;0.00;91.80;;;;;;5073107;28;20300;-69
2021/01/26 00:58:50;;;;;;;;;;;0.00;92.00;;;;;;5069487;28;20306;-69
2021/01/26 01:01:16;;;;;;;;;;;0.00;92.00;;;;;;5072281;28;19947;-69
2021/01/26 01:03:42;;;;;;;;;;;0.00;92.00;;;;;;5073040;28;19928;-69
2021/01/26 01:06:09;;;;;;;;;;;0.00;92.00;;;;;;5068827;28;19989;-68
2021/01/26 01:08:35;;;;;;;;;;;0.10;92.10;;;;;;5072434;28;19983;-68
2021/01/26 01:11:01;;;;;;;;;;;0.10;92.30;;;;;;5068904;28;19928;-68
2021/01/26 01:13:27;;;;;;;;;;;0.00;92.70;;;;;;5072312;28;19994;-68
2021/01/26 01:15:54;;;;;;;;;;;-0.10;92.80;;;;;;5068478;28;19963;-68
2021/01/26 01:18:20;;;;;;;;;;;-0.10;92.80;;;;;;5071743;28;20343;-68
2021/01/26 01:20:46;;;;;;;;;;;-0.10;92.70;;;;;;5069061;28;19976;-68
2021/01/26 01:23:13;;;;;;;;;;;-0.10;92.70;;;;;;5072335;28;19985;-68
2021/01/26 01:25:39;;;;;;;;;;;-0.10;92.60;;;;;;5069357;28;20389;-68
2021/01/26 01:28:06;;;;;;;;;;;-0.10;92.70;;;;;;5072449;28;19938;-68
2021/01/26 01:30:33;;;;;;;;;;;-0.10;92.80;;;;;;5071184;28;20331;-68
2021/01/26 01:33:01;;;;;;;;;;;-0.10;92.60;;;;;;5070714;28;19979;-68
2021/01/26 01:35:27;;;;;;;;;;;-0.10;92.50;;;;;;5072371;28;19924;-68
2021/01/26 01:37:54;;;;;;;;;;;-0.10;92.50;;;;;;5069233;28;20383;-68
2021/01/26 01:40:30;;;;;;;;;;;-0.10;92.50;;;;;;5072127;28;19964;-68
2021/01/26 01:42:56;;;;;;;;;;;-0.10;92.60;;;;;;5069297;28;19928;-68
2021/01/26 01:45:23;;;;;;;;;;;-0.10;92.50;;;;;;5071314;28;19982;-68
2021/01/26 01:47:55;;;;;;;;;;;0.00;92.50;;;;;;5069048;28;20016;-69
2021/01/26 01:50:31;;;;;;;;;;;0.00;92.60;;;;;;5071968;28;20359;-68
2021/01/26 01:53:30;;;;;;;;;;;0.00;92.70;;;;;;5067688;28;19963;-68
2021/01/26 01:55:59;;;;;;;;;;;0.00;93.00;;;;;;5049212;28;20021;-68
2021/01/26 01:58:28;;;;;;;;;;;0.00;93.10;;;;;;5067642;28;20014;-68
2021/01/26 02:01:04;;;;;;;;;;;0.00;93.10;;;;;;5071151;28;20265;-68
2021/01/26 02:03:35;;;;;;;;;;;0.00;93.50;;;;;;5068671;28;19928;-68
2021/01/26 02:06:01;;;;;;;;;;;0.00;93.50;;;;;;5070820;28;20314;-68
2021/01/26 02:08:34;;;;;;;;;;;0.00;93.60;;;;;;5077399;28;19962;-68
2021/01/26 02:11:00;;;;;;;;;;;-0.10;93.60;;;;;;5051880;28;19956;-68
2021/01/26 02:13:26;;;;;;;;;;;0.00;93.80;;;;;;5052733;28;20378;-68
2021/01/26 02:15:57;;;;;;;;;;;0.10;94.10;;;;;;5071060;28;20278;-68
2021/01/26 02:18:42;;;;;;;;;;;0.10;93.60;;;;;;5067210;28;19935;-69
2021/01/26 02:21:17;;;;;;;;;;;0.10;93.70;;;;;;5070997;28;20345;-68
2021/01/26 02:23:56;;;;;;;;;;;0.00;94.00;;;;;;5068105;28;19924;-68
2021/01/26 02:26:46;;;;;;;;;;;0.10;94.30;;;;;;5071922;28;19924;-68
2021/01/26 02:29:25;;;;;;;;;;;0.00;94.20;;;;;;5068701;28;19928;-68
2021/01/26 02:32:13;;;;;;;;;;;0.00;94.10;;;;;;5070914;28;19959;-68
2021/01/26 02:34:39;;;;;;;;;;;0.10;94.50;;;;;;5067417;28;19928;-68
2021/01/26 02:37:25;;;;;;;;;;;0.00;94.40;;;;;;5071727;28;20001;-68
2021/01/26 02:40:11;;;;;;;;;;;0.00;94.50;;;;;;5068528;28;19989;-68
2021/01/26 02:42:47;;;;;;;;;;;0.00;94.70;;;;;;5071474;28;20357;-68
2021/01/26 02:45:19;;;;;;;;;;;0.10;94.50;;;;;;5068462;28;19964;-68
2021/01/26 02:47:57;;;;;;;;;;;0.10;94.70;;;;;;5070436;28;20391;-68
2021/01/26 02:50:42;;;;;;;;;;;0.00;94.70;;;;;;5067279;28;19978;-68
2021/01/26 02:53:14;;;;;;;;;;;0.10;94.70;;;;;;5071527;28;19925;-68
2021/01/26 02:55:40;;;;;;;;;;;0.10;94.80;;;;;;5068004;28;19963;-68
2021/01/26 02:58:13;;;;;;;;;;;0.10;95.10;;;;;;5071528;28;19995;-68
2021/01/26 03:00:42;;;;;;;;;;;0.10;95.00;;;;;;5070542;28;20349;-68
2021/01/26 03:03:20;;;;;;;;;;;0.10;95.00;;;;;;5070196;28;20333;-68
2021/01/26 03:05:49;;;;;;;;;;;0.20;95.00;;;;;;5071255;28;19928;-68
2021/01/26 03:08:19;;;;;;;;;;;0.20;94.90;;;;;;5085702;28;20016;-68
2021/01/26 03:10:52;;;;;;;;;;;0.30;94.80;;;;;;5091668;28;19939;-68
2021/01/26 03:13:20;;;;;;;;;;;0.30;94.70;;;;;;5070183;28;20266;-68
2021/01/26 03:15:56;;;;;;;;;;;0.30;94.70;;;;;;5070256;28;20372;-69
2021/01/26 03:18:28;;;;;;;;;;;0.30;94.70;;;;;;5068441;28;19925;-69
2021/01/26 03:20:57;;;;;;;;;;;0.30;94.80;;;;;;5071390;28;19929;-68
2021/01/26 03:23:31;;;;;;;;;;;0.20;94.80;;;;;;5067675;28;19986;-68
2021/01/26 03:25:57;;;;;;;;;;;0.20;94.90;;;;;;5071064;28;20349;-68
2021/01/26 03:28:26;;;;;;;;;;;0.20;94.90;;;;;;5067759;28;19975;-68
2021/01/26 03:30:57;;;;;;;;;;;0.30;94.70;;;;;;5072882;28;20238;-69
2021/01/26 03:33:44;;;;;;;;;;;0.30;94.50;;;;;;5070414;28;20337;-68
2021/01/26 03:36:15;;;;;;;;;;;0.30;94.70;;;;;;5074835;28;19928;-69
2021/01/26 03:38:42;;;;;;;;;;;0.30;94.60;;;;;;5070349;28;20385;-68
2021/01/26 03:41:08;;;;;;;;;;;0.30;94.70;;;;;;5074576;28;19924;-68
2021/01/26 03:43:37;;;;;;;;;;;0.30;94.90;;;;;;5070413;28;19928;-69
2021/01/26 03:46:22;;;;;;;;;;;0.30;94.80;;;;;;5074324;28;19925;-68
2021/01/26 03:48:51;;;;;;;;;;;0.30;94.90;;;;;;5070677;28;20467;-68
2021/01/26 03:51:36;;;;;;;;;;;0.30;94.80;;;;;;5073504;28;19925;-69
2021/01/26 03:54:12;;;;;;;;;;;0.30;94.80;;;;;;5070460;28;19973;-68
2021/01/26 03:56:50;;;;;;;;;;;0.30;94.20;;;;;;5073179;28;19967;-68
2021/01/26 03:59:30;;;;;;;;;;;0.40;94.50;;;;;;5070896;28;19959;-68
2021/01/26 04:01:59;;;;;;;;;;;0.30;94.40;;;;;;5073447;28;19928;-68
2021/01/26 04:04:32;;;;;;;;;;;0.30;94.50;;;;;;5071035;28;19998;-69
2021/01/26 04:07:00;;;;;;;;;;;0.30;94.20;;;;;;5073898;28;19960;-69
2021/01/26 04:09:31;;;;;;;;;;;0.30;94.10;;;;;;5074276;28;19979;-69
2021/01/26 04:12:01;;;;;;;;;;;0.30;93.90;;;;;;5105617;28;19936;-69
2021/01/26 04:14:30;;;;;;;;;;;0.30;93.70;;;;;;5073099;28;19938;-69
2021/01/26 04:17:01;;;;;;;;;;;0.40;93.60;;;;;;5069688;28;20302;-69
2021/01/26 04:19:31;;;;;;;;;;;0.40;93.50;;;;;;5073070;28;19978;-69
2021/01/26 04:21:58;;;;;;;;;;;0.40;93.50;;;;;;5070592;28;20512;-69
2021/01/26 04:24:29;;;;;;;;;;;0.40;93.50;;;;;;5072586;28;19924;-69
2021/01/26 04:26:56;;;;;;;;;;;0.40;93.60;;;;;;5070556;28;20032;-69
2021/01/26 04:29:22;;;;;;;;;;;0.40;93.60;;;;;;5073624;28;19968;-69
2021/01/26 04:31:50;;;;;;;;;;;0.40;93.50;;;;;;5069157;28;19929;-69
2021/01/26 04:34:16;;;;;;;;;;;0.40;93.60;;;;;;5072692;28;19939;-69
2021/01/26 04:36:43;;;;;;;;;;;0.30;93.50;;;;;;5070348;28;19924;-69
2021/01/26 04:39:09;;;;;;;;;;;0.30;93.60;;;;;;5073494;28;19968;-69
2021/01/26 04:41:44;;;;;;;;;;;0.30;93.40;;;;;;5069793;28;19928;-69
2021/01/26 04:44:40;;;;;;;;;;;0.40;93.40;;;;;;5072284;28;19980;-69
2021/01/26 04:47:06;;;;;;;;;;;0.40;93.20;;;;;;5051768;28;19985;-69
2021/01/26 04:49:43;;;;;;;;;;;0.50;93.10;;;;;;5073409;28;20286;-69
2021/01/26 04:52:09;;;;;;;;;;;0.40;93.20;;;;;;5069958;28;20309;-69
2021/01/26 04:54:35;;;;;;;;;;;0.40;92.90;;;;;;5072794;28;19928;-69
2021/01/26 04:57:01;;;;;;;;;;;0.40;92.80;;;;;;5071985;28;20409;-69
2021/01/26 04:59:42;;;;;;;;;;;0.40;92.60;;;;;;5070014;28;19928;-69
2021/01/26 05:02:20;;;;;;;;;;;0.40;92.40;;;;;;5072225;28;19981;-69
2021/01/26 05:04:50;;;;;;;;;;;0.40;92.40;;;;;;5069474;28;19939;-69
2021/01/26 05:07:27;;;;;;;;;;;0.40;92.10;;;;;;5071798;28;19928;-69
2021/01/26 05:09:58;;;;;;;;;;;0.50;91.60;;;;;;5068286;28;19975;-69
2021/01/26 05:12:27;;;;;;;;;;;0.50;91.50;;;;;;5072901;28;19936;-69
2021/01/26 05:14:55;;;;;;;;;;;0.40;91.30;;;;;;5068363;28;20025;-69
2021/01/26 05:17:28;;;;;;;;;;;0.40;91.30;;;;;;5072544;28;19972;-69
2021/01/26 05:19:55;;;;;;;;;;;0.40;90.80;;;;;;5058080;28;20365;-69
2021/01/26 05:22:24;;;;;;;;;;;0.40;90.60;;;;;;5087919;28;19975;-69
2021/01/26 05:24:56;;;;;;;;;;;0.50;90.70;;;;;;5069138;28;19936;-69
2021/01/26 05:27:22;;;;;;;;;;;0.50;90.60;;;;;;5071765;28;20176;-69
2021/01/26 05:29:49;;;;;;;;;;;0.40;90.50;;;;;;5068136;28;20390;-69
2021/01/26 05:32:17;;;;;;;;;;;0.50;90.60;;;;;;5071591;28;20015;-69
2021/01/26 05:34:44;;;;;;;;;;;0.40;90.30;;;;;;5067879;28;19928;-69
2021/01/26 05:37:13;;;;;;;;;;;0.50;90.30;;;;;;5071538;28;19989;-69
2021/01/26 05:39:45;;;;;;;;;;;0.50;90.10;;;;;;5068775;28;20324;-69
2021/01/26 05:42:13;;;;;;;;;;;0.50;90.20;;;;;;5071510;28;20184;-69
2021/01/26 05:44:43;;;;;;;;;;;0.40;90.20;;;;;;5071164;28;19963;-69
2021/01/26 05:47:24;;;;;;;;;;;0.40;90.30;;;;;;5068623;28;19975;-69
2021/01/26 05:49:51;;;;;;;;;;;0.30;90.20;;;;;;5072238;28;19931;-69
2021/01/26 05:52:19;;;;;;;;;;;0.40;90.20;;;;;;5068514;28;19928;-69
2021/01/26 05:54:50;;;;;;;;;;;0.40;90.30;;;;;;5071623;28;20372;-69
2021/01/26 05:57:24;;;;;;;;;;;0.30;90.40;;;;;;5085762;28;19929;-69
2021/01/26 05:59:50;;;;;;;;;;;0.40;90.20;;;;;;5051875;28;19968;-69
2021/01/26 06:02:20;;;;;;;;;;;0.30;90.30;;;;;;5061394;28;19958;-69
2021/01/26 06:04:46;;;;;;;;;;;0.30;90.40;;;;;;5071555;28;19928;-68
2021/01/26 06:07:23;;;;;;;;;;;0.40;90.40;;;;;;5067926;28;19933;-69
2021/01/26 06:09:52;;;;;;;;;;;0.40;90.50;;;;;;5070960;28;19954;-69
2021/01/26 06:12:26;;;;;;;;;;;0.40;90.60;;;;;;5068657;28;19965;-69
2021/01/26 06:14:55;;;;;;;;;;;0.40;90.50;;;;;;5071447;28;19958;-69
2021/01/26 06:17:31;;;;;;;;;;;0.40;90.80;;;;;;5067150;28;20369;-69
2021/01/26 06:20:01;;;;;;;;;;;0.30;90.70;;;;;;5071204;28;19924;-69
2021/01/26 06:22:31;;;;;;;;;;;0.40;90.90;;;;;;5069012;28;19924;-69
2021/01/26 06:24:59;;;;;;;;;;;0.40;90.80;;;;;;5071764;28;20307;-68
2021/01/26 06:27:33;;;;;;;;;;;0.40;90.70;;;;;;5068853;28;20357;-68
2021/01/26 06:30:03;;;;;;;;;;;0.30;90.30;;;;;;5070430;28;19928;-68
2021/01/26 06:32:29;;;;;;;;;;;0.30;90.60;;;;;;5071699;28;19978;-68
2021/01/26 06:34:55;;;;;;;;;;;0.30;90.70;;;;;;5067332;28;19932;-68
2021/01/26 06:37:34;;;;;;;;;;;0.40;90.50;;;;;;5071660;28;20282;-68
2021/01/26 06:40:19;;;;;;;;;;;0.40;90.30;;;;;;5067102;28;19982;-69
2021/01/26 06:42:46;;;;;;;;;;;0.40;90.60;;;;;;5071835;28;19929;-69
2021/01/26 06:45:18;;;;;;;;;;;0.40;90.40;;;;;;5068156;28;19964;-69
2021/01/26 06:47:44;;;;;;;;;;;0.50;90.50;;;;;;5070843;28;19928;-69
2021/01/26 06:50:22;;;;;;;;;;;0.50;90.30;;;;;;5068078;28;20421;-69
2021/01/26 06:52:55;;;;;;;;;;;0.50;90.40;;;;;;5070640;28;20311;-69
2021/01/26 06:55:40;;;;;;;;;;;0.50;90.60;;;;;;5067578;28;20368;-69
2021/01/26 06:58:24;;;;;;;;;;;0.50;90.70;;;;;;5071908;28;19929;-69
2021/01/26 07:01:09;;;;;;;;;;;0.50;90.90;;;;;;5068353;28;19950;-69
2021/01/26 07:03:56;;;;;;;;;;;0.50;90.90;;;;;;5071329;28;19982;-69
2021/01/26 07:06:39;;;;;;;;;;;0.50;90.90;;;;;;5070759;28;20183;-69
2021/01/26 07:09:15;;;;;;;;;;;0.50;90.80;;;;;;5075296;28;19966;-69
2021/01/26 07:12:17;;;;;;;;;;;0.60;90.80;;;;;;5070982;28;19929;-69
2021/01/26 07:15:02;;;;;;;;;;;0.60;90.90;;;;;;5052889;28;19936;-69
2021/01/26 07:17:40;;;;;;;;;;;0.60;90.60;;;;;;5071180;28;19932;-69
2021/01/26 07:20:19;;;;;;;;;;;0.70;90.50;;;;;;5054805;28;20273;-69
2021/01/26 07:22:57;;;;;;;;;;;0.70;90.60;;;;;;5093374;28;19928;-69
2021/01/26 07:25:36;;;;;;;;;;;0.70;90.50;;;;;;5073459;28;20052;-68
2021/01/26 07:28:03;;;;;;;;;;;0.80;90.60;;;;;;5055228;28;20014;-68
2021/01/26 07:30:33;;;;;;;;;;;0.80;89.90;;;;;;5054172;28;19987;-68
2021/01/26 07:33:23;;;;;;;;;;;0.90;88.50;;;;;;5069539;28;19978;-68
2021/01/26 07:36:08;;;;;;;;;;;0.80;88.30;;;;;;5055538;28;19951;-68
2021/01/26 07:38:42;;;;;;;;;;;0.80;88.10;;;;;;5073044;28;20269;-69
2021/01/26 07:41:16;;;;;;;;;;;0.80;87.60;;;;;;5074281;28;19983;-68
2021/01/26 07:43:53;;;;;;;;;;;0.80;86.50;;;;;;5070198;28;20360;-68
2021/01/26 07:46:25;;;;;;;;;;;0.90;85.80;;;;;;5074268;28;19924;-68
2021/01/26 07:48:55;;;;;;;;;;;1.00;85.30;;;;;;5071465;28;19928;-68
2021/01/26 07:51:32;;;;;;;;;;;1.00;85.50;;;;;;5074255;28;20035;-68
2021/01/26 07:54:06;;;;;;;;;;;1.10;83.20;;;;;;5068774;28;19967;-69
2021/01/26 07:56:32;;;;;;;;;;;1.10;83.40;;;;;;5065463;28;19990;-68
2021/01/26 07:59:03;;;;;;;;;;;1.20;82.90;;;;;;5070415;28;19925;-68
2021/01/26 08:01:34;;;;;;;;;;;1.20;82.10;;;;;;5103816;28;19924;-68
2021/01/26 08:04:01;;;;;;;;;;;1.20;81.40;;;;;;5071233;28;20023;-68
2021/01/26 08:06:38;;;;;;;;;;;1.20;82.50;;;;;;5071608;28;19928;-68
2021/01/26 08:09:08;;;;;;;;;;;1.30;80.40;;;;;;5070145;28;19928;-68
2021/01/26 08:11:35;;;;;;;;;;;1.20;80.90;;;;;;5073488;28;19925;-69
2021/01/26 08:14:06;;;;;;;;;;;1.30;80.80;;;;;;5069235;28;20026;-68
2021/01/26 08:16:34;;;;;;;;;;;1.30;80.50;;;;;;5073381;28;19932;-68
2021/01/26 08:19:04;;;;;;;;;;;1.40;80.80;;;;;;5071211;28;19962;-69
2021/01/26 08:21:35;;;;;;;;;;;1.40;80.80;;;;;;5072214;28;19928;-69
2021/01/26 08:24:11;;;;;;;;;;;1.50;80.10;;;;;;5068874;28;19954;-68
2021/01/26 08:26:37;;;;;;;;;;;1.50;79.60;;;;;;5073162;28;19983;-69
2021/01/26 08:29:04;;;;;;;;;;;1.50;79.50;;;;;;5073620;28;19925;-69
2021/01/26 08:31:38;;;;;;;;;;;1.50;79.40;;;;;;5051589;28;20369;-68
2021/01/26 08:34:25;;;;;;;;;;;1.50;79.60;;;;;;5059024;28;19932;-68
2021/01/26 08:37:09;;;;;;;;;;;1.40;80.40;;;;;;5064420;28;20002;-69
2021/01/26 08:39:38;;;;;;;;;;;1.50;80.10;;;;;;5072630;28;19993;-69
2021/01/26 08:42:08;;;;;;;;;;;1.30;80.60;;;;;;5068892;28;19928;-68
2021/01/26 08:44:35;;;;;;;;;;;1.30;81.70;;;;;;5073246;28;20024;-69
2021/01/26 08:47:18;;;;;;;;;;;1.40;81.30;;;;;;5067995;28;19966;-69
2021/01/26 08:49:45;;;;;;;;;;;1.30;81.30;;;;;;5072623;28;19928;-68
2021/01/26 08:52:20;;;;;;;;;;;1.30;81.80;;;;;;5070528;28;19990;-69
2021/01/26 08:54:48;;;;;;;;;;;1.20;82.30;;;;;;5073581;28;19986;-69
2021/01/26 08:57:34;;;;;;;;;;;1.30;82.00;;;;;;5069707;28;19974;-69
2021/01/26 09:00:12;;;;;;;;;;;1.50;81.30;;;;;;5071859;28;19932;-69
2021/01/26 09:02:40;;;;;;;;;;;1.50;81.40;;;;;;5069519;28;20037;-69
2021/01/26 09:05:08;;;;;;;;;;;1.40;81.60;;;;;;5086553;28;19924;-69
2021/01/26 09:07:45;;;;;;;;;;;1.50;81.80;;;;;;5077119;28;19930;-69
2021/01/26 09:10:20;;;;;;;;;;;1.50;80.80;;;;;;5071043;28;19932;-68
2021/01/26 09:12:46;;;;;;;;;;;1.50;81.20;;;;;;5068575;28;19932;-69
2021/01/26 09:15:16;;;;;;;;;;;1.60;81.60;;;;;;5073091;28;19928;-69
2021/01/26 09:17:42;;;;;;;;;;;1.60;82.20;;;;;;5068591;28;19928;-68
2021/01/26 09:20:35;;;;;;;;;;;1.70;81.50;;;;;;5072783;28;19985;-68
2021/01/26 09:23:02;;;;;;;;;;;1.70;81.30;;;;;;5067883;28;20006;-68
2021/01/26 09:25:31;;;;;;;;;;;1.60;81.80;;;;;;5071672;28;20358;-68
2021/01/26 09:28:02;;;;;;;;;;;1.70;81.60;;;;;;5068393;28;19932;-69
2021/01/26 09:30:33;;;;;;;;;;;1.70;81.70;;;;;;5071938;28;20359;-69
2021/01/26 09:33:02;;;;;;;;;;;1.70;80.80;;;;;;5052971;28;19998;-69
2021/01/26 09:35:31;;;;;;;;;;;1.80;80.80;;;;;;5071368;28;19924;-69
2021/01/26 09:38:11;;;;;;;;;;;1.80;81.00;;;;;;5069696;28;19928;-68
2021/01/26 09:40:40;;;;;;;;;;;1.80;80.70;;;;;;5051320;28;20026;-68
2021/01/26 09:43:14;;;;;;;;;;;1.80;80.60;;;;;;5052143;28;19928;-68
2021/01/26 09:45:41;;;;;;;;;;;1.80;81.30;;;;;;5067729;28;20287;-69
2021/01/26 09:48:10;;;;;;;;;;;1.70;81.40;;;;;;5071458;28;20269;-69
2021/01/26 09:50:36;;;;;;;;;;;1.80;81.70;;;;;;5068826;28;19936;-69
2021/01/26 09:53:03;;;;;;;;;;;1.80;81.70;;;;;;5070946;28;19994;-68
2021/01/26 09:55:30;;;;;;;;;;;1.90;81.70;;;;;;5068761;28;20352;-69
2021/01/26 09:57:57;;;;;;;;;;;2.00;80.90;;;;;;5072058;28;20023;-68
2021/01/26 10:00:25;;;;;;;;;;;1.90;80.50;;;;;;5069224;28;19925;-69
2021/01/26 10:02:53;;;;;;;;;;;2.00;81.10;;;;;;5071639;28;19959;-69
2021/01/26 10:05:21;;;;;;;;;;;2.10;81.10;;;;;;5077177;28;19925;-69
2021/01/26 10:08:03;;;;;;;;;;;2.20;81.00;;;;;;5071722;28;19985;-68
2021/01/26 10:10:30;;;;;;;;;;;2.00;81.80;;;;;;5067729;28;19982;-68
2021/01/26 10:12:56;;;;;;;;;;;2.10;81.70;;;;;;5070838;28;19939;-68
2021/01/26 10:15:23;;;;;;;;;;;2.00;82.50;;;;;;5068466;28;19928;-69
2021/01/26 10:18:09;;;;;;;;;;;1.90;82.80;;;;;;5071647;28;19976;-69
2021/01/26 10:20:48;;;;;;;;;;;1.90;83.20;;;;;;5067413;28;20383;-69
2021/01/26 10:23:20;;;;;;;;;;;1.90;84.50;;;;;;5071718;28;19924;-69
2021/01/26 10:25:46;;;;;;;;;;;2.10;84.10;;;;;;5068793;28;20063;-69
2021/01/26 10:28:15;;;;;;;;;;;2.30;83.60;;;;;;5055003;28;19986;-68
2021/01/26 10:30:42;;;;;;;;;;;2.40;83.30;;;;;;5071204;28;20327;-68
2021/01/26 10:33:09;;;;;;;;;;;2.40;81.10;;;;;;5067480;28;19931;-69
2021/01/26 10:35:39;;;;;;;;;;;2.20;81.70;;;;;;5072185;28;20530;-69
2021/01/26 10:38:23;;;;;;;;;;;2.20;83.20;;;;;;5067401;28;19924;-69
2021/01/26 10:41:03;;;;;;;;;;;2.20;82.70;;;;;;5075097;28;19929;-69
2021/01/26 10:43:31;;;;;;;;;;;2.20;83.10;;;;;;5072650;28;20302;-69
2021/01/26 10:45:58;;;;;;;;;;;2.40;83.40;;;;;;5075685;28;19936;-69
2021/01/26 10:48:34;;;;;;;;;;;2.50;83.10;;;;;;5072475;28;20278;-69
2021/01/26 10:51:17;;;;;;;;;;;2.70;82.60;;;;;;5075171;28;20341;-69
2021/01/26 10:53:47;;;;;;;;;;;2.50;82.90;;;;;;5071620;28;19966;-69
2021/01/26 10:56:14;;;;;;;;;;;2.50;83.30;;;;;;5075082;28;19982;-69
2021/01/26 10:58:47;;;;;;;;;;;2.20;85.30;;;;;;5061280;28;19994;-69
2021/01/26 11:01:18;;;;;;;;;;;2.10;85.20;;;;;;5075333;28;19974;-69
2021/01/26 11:03:44;;;;;;;;;;;2.10;87.00;;;;;;5074691;28;20319;-69
2021/01/26 11:06:10;;;;;;;;;;;2.00;87.80;;;;;;5076399;28;19982;-69
2021/01/26 11:08:37;;;;;;;;;;;1.90;89.10;;;;;;5072031;28;19932;-69
2021/01/26 11:11:03;;;;;;;;;;;2.00;89.00;;;;;;5075416;28;19928;-69
2021/01/26 11:13:32;;;;;;;;;;;2.10;88.70;;;;;;5072128;28;19936;-69
2021/01/26 11:15:58;;;;;;;;;;;2.00;88.80;;;;;;5073287;28;20003;-69
2021/01/26 11:18:27;;;;;;;;;;;1.90;89.70;;;;;;5075160;28;19928;-69
2021/01/26 11:20:56;;;;;;;;;;;1.90;90.00;;;;;;5071631;28;19928;-69
2021/01/26 11:23:22;;;;;;;;;;;2.00;89.00;;;;;;5075009;28;19928;-69
2021/01/26 11:25:49;;;;;;;;;;;1.80;89.00;;;;;;5070828;28;19928;-69
2021/01/26 11:28:15;;;;;;;;;;;1.80;90.10;;;;;;5073871;28;19924;-69
2021/01/26 11:30:41;;;;;;;;;;;1.80;90.10;;;;;;5071195;28;20027;-69
2021/01/26 11:33:08;;;;;;;;;;;1.90;89.50;;;;;;5073745;28;20326;-69
2021/01/26 11:35:34;;;;;;;;;;;1.90;88.50;;;;;;5065980;28;19959;-69
2021/01/26 11:38:01;;;;;;;;;;;1.80;89.00;;;;;;5074215;28;19968;-69
2021/01/26 11:40:27;;;;;;;;;;;1.80;89.70;;;;;;5082880;28;20371;-69
2021/01/26 11:42:54;;;;;;;;;;;1.80;89.00;;;;;;5054664;28;20264;-69
2021/01/26 11:45:24;;;;;;;;;;;1.60;89.80;;;;;;5051771;28;19976;-69
2021/01/26 11:47:50;;;;;;;;;;;1.60;89.30;;;;;;5074582;28;19979;-69
2021/01/26 11:50:17;;;;;;;;;;;1.50;90.20;;;;;;5106612;28;19990;-69
2021/01/26 11:52:43;;;;;;;;;;;1.50;89.70;;;;;;5070386;28;19964;-69
2021/01/26 11:55:12;;;;;;;;;;;1.50;89.50;;;;;;5073156;28;19967;-68
2021/01/26 11:57:41;;;;;;;;;;;1.50;88.00;;;;;;5070652;28;19939;-68
2021/01/26 12:00:09;;;;;;;;;;;1.50;88.40;;;;;;5073147;28;19974;-69
2021/01/26 12:02:35;;;;;;;;;;;1.50;88.40;;;;;;5069867;28;20279;-69
2021/01/26 12:05:03;;;;;;;;;;;1.60;88.40;;;;;;5087199;28;19924;-69
2021/01/26 12:07:29;;;;;;;;;;;1.70;87.20;;;;;;5081763;28;20249;-69
2021/01/26 12:09:56;;;;;;;;;;;1.50;87.40;;;;;;5073484;28;20034;-70
2021/01/26 12:12:23;;;;;;;;;;;1.50;88.10;;;;;;5071035;28;20087;-68
2021/01/26 12:14:49;;;;;;;;;;;1.50;88.50;;;;;;5073623;28;20329;-68
2021/01/26 12:17:15;;;;;;;;;;;1.50;87.70;;;;;;5070747;28;20009;-68
2021/01/26 12:19:44;;;;;;;;;;;1.50;88.90;;;;;;5072481;28;20378;-68
2021/01/26 12:22:11;;;;;;;;;;;1.50;86.70;;;;;;5072485;28;19982;-68
2021/01/26 12:24:37;;;;;;;;;;;1.50;86.70;;;;;;5070042;28;19937;-68
2021/01/26 12:27:03;;;;;;;;;;;1.50;87.00;;;;;;5072851;28;19959;-68
2021/01/26 12:29:29;;;;;;;;;;;1.50;87.00;;;;;;5069166;28;19946;-68
2021/01/26 12:31:57;;;;;;;;;;;1.60;85.80;;;;;;5072608;28;19929;-68
2021/01/26 12:34:23;;;;;;;;;;;1.60;85.90;;;;;;5069401;28;19955;-68
2021/01/26 12:36:50;;;;;;;;;;;1.60;85.40;;;;;;5072437;28;19936;-68
2021/01/26 12:39:19;;;;;;;;;;;1.70;86.10;;;;;;5068768;28;19932;-68
2021/01/26 12:41:45;;;;;;;;;;;1.70;85.50;;;;;;5073715;28;20041;-68
2021/01/26 12:44:12;;;;;;;;;;;1.70;86.00;;;;;;5069950;28;19928;-68
2021/01/26 12:46:41;;;;;;;;;;;1.70;86.00;;;;;;5072947;28;19987;-68
2021/01/26 12:49:07;;;;;;;;;;;1.60;87.30;;;;;;5069769;28;20080;-68
2021/01/26 12:51:33;;;;;;;;;;;1.50;89.40;;;;;;5073519;28;19929;-68
2021/01/26 12:54:00;;;;;;;;;;;1.30;91.40;;;;;;5070582;28;20114;-68
2021/01/26 12:56:26;;;;;;;;;;;1.20;92.60;;;;;;5072174;28;20749;-68
2021/01/26 12:58:53;;;;;;;;;;;1.20;92.70;;;;;;5072863;28;19973;-68
2021/01/26 13:01:19;;;;;;;;;;;1.00;93.10;;;;;;5069019;28;20295;-68
2021/01/26 13:03:46;;;;;;;;;;;1.00;93.40;;;;;;5076225;28;19928;-68
2021/01/26 13:06:12;;;;;;;;;;;1.00;93.70;;;;;;5075987;28;19982;-68
2021/01/26 13:08:39;;;;;;;;;;;1.00;93.70;;;;;;5072317;28;20027;-68
2021/01/26 13:11:16;;;;;;;;;;;0.90;93.80;;;;;;5069701;28;19924;-68
2021/01/26 13:13:44;;;;;;;;;;;0.90;93.80;;;;;;5071758;28;20043;-68
2021/01/26 13:16:12;;;;;;;;;;;0.90;93.80;;;;;;5064240;28;20368;-68
2021/01/26 13:18:39;;;;;;;;;;;0.90;93.10;;;;;;5069949;28;20002;-69
2021/01/26 13:21:06;;;;;;;;;;;1.00;93.10;;;;;;5069136;28;20019;-69
2021/01/26 13:23:32;;;;;;;;;;;1.00;93.10;;;;;;5072506;28;19975;-69
2021/01/26 13:25:58;;;;;;;;;;;1.00;93.20;;;;;;5070145;28;19951;-69
2021/01/26 13:28:25;;;;;;;;;;;1.10;93.30;;;;;;5072570;28;20372;-68
2021/01/26 13:30:51;;;;;;;;;;;1.10;92.70;;;;;;5072266;28;20043;-69
2021/01/26 13:33:17;;;;;;;;;;;1.10;92.70;;;;;;5068666;28;19936;-68
2021/01/26 13:35:44;;;;;;;;;;;1.10;92.40;;;;;;5072366;28;19928;-68
2021/01/26 13:38:11;;;;;;;;;;;1.10;92.30;;;;;;5069004;28;19979;-68
2021/01/26 13:40:38;;;;;;;;;;;1.10;92.40;;;;;;5071707;28;20370;-69
2021/01/26 13:43:04;;;;;;;;;;;1.10;92.60;;;;;;5068278;28;20166;-69
2021/01/26 13:45:31;;;;;;;;;;;1.20;92.00;;;;;;5071496;28;20238;-69
2021/01/26 13:47:57;;;;;;;;;;;1.20;92.20;;;;;;5068551;28;19932;-69
2021/01/26 13:50:28;;;;;;;;;;;1.10;91.60;;;;;;5071409;28;19928;-69
2021/01/26 13:52:54;;;;;;;;;;;1.10;92.10;;;;;;5068280;28;19967;-69
2021/01/26 13:55:22;;;;;;;;;;;1.10;92.20;;;;;;5071382;28;19997;-69
2021/01/26 13:57:48;;;;;;;;;;;1.00;92.20;;;;;;5069203;28;19990;-69
2021/01/26 14:00:15;;;;;;;;;;;1.10;91.90;;;;;;5072005;28;19938;-69
2021/01/26 14:02:41;;;;;;;;;;;1.10;92.10;;;;;;5072409;28;19980;-69
2021/01/26 14:05:09;;;;;;;;;;;1.10;91.90;;;;;;5082941;28;19949;-69
2021/01/26 14:07:37;;;;;;;;;;;1.10;91.60;;;;;;5092167;28;20165;-69
2021/01/26 14:10:04;;;;;;;;;;;1.10;91.70;;;;;;5069465;28;19983;-69
2021/01/26 14:12:31;;;;;;;;;;;1.20;91.90;;;;;;5071824;28;19929;-69
2021/01/26 14:14:57;;;;;;;;;;;1.20;92.00;;;;;;5078517;28;19972;-69
2021/01/26 14:17:23;;;;;;;;;;;1.20;92.10;;;;;;5091844;28;20010;-69
2021/01/26 14:19:50;;;;;;;;;;;1.20;91.60;;;;;;5077531;28;19928;-69
2021/01/26 14:22:16;;;;;;;;;;;1.10;91.50;;;;;;5071867;28;19924;-69
2021/01/26 14:24:43;;;;;;;;;;;1.10;91.60;;;;;;5067601;28;19928;-69
2021/01/26 14:27:09;;;;;;;;;;;1.20;91.30;;;;;;5071309;28;19997;-69
2021/01/26 14:29:35;;;;;;;;;;;1.10;91.40;;;;;;5053885;28;19925;-69
2021/01/26 14:32:02;;;;;;;;;;;1.10;91.70;;;;;;5071479;28;19989;-69
2021/01/26 14:34:28;;;;;;;;;;;1.10;92.30;;;;;;5071808;28;19925;-69
2021/01/26 14:36:54;;;;;;;;;;;1.00;92.70;;;;;;5066288;28;20277;-69
2021/01/26 14:39:20;;;;;;;;;;;1.00;92.70;;;;;;5071561;28;20299;-69
2021/01/26 14:41:47;;;;;;;;;;;0.90;92.70;;;;;;5067934;28;19932;-69
2021/01/26 14:44:13;;;;;;;;;;;1.00;92.70;;;;;;5071924;28;20058;-69
2021/01/26 14:46:40;;;;;;;;;;;0.90;92.60;;;;;;5067999;28;19990;-69